createdAt,value
2023-05-07T00:00:46.830Z,99.90
2023-05-07T00:05:49.367Z,99.90
2023-05-07T00:10:51.884Z,99.90
2023-05-07T00:15:54.561Z,99.90
2023-05-07T00:20:57.466Z,99.90
2023-05-07T00:26:00.179Z,99.90
2023-05-07T00:31:02.708Z,99.90
2023-05-07T00:36:05.453Z,99.90
2023-05-07T00:41:07.999Z,99.90
2023-05-07T00:46:11.280Z,99.90
2023-05-07T00:51:14.197Z,99.90
2023-05-07T00:56:17.184Z,99.90
2023-05-07T01:01:19.756Z,99.90
2023-05-07T01:06:24.334Z,99.90
2023-05-07T01:11:27.469Z,99.90
2023-05-07T01:16:30.072Z,99.90
2023-05-07T01:21:35.962Z,99.90
2023-05-07T01:26:40.932Z,99.90
2023-05-07T01:31:44.784Z,99.90
2023-05-07T01:36:48.100Z,99.90
2023-05-07T01:41:50.843Z,99.90
2023-05-07T01:46:54.688Z,99.90
2023-05-07T01:51:57.174Z,99.90
2023-05-07T01:56:59.983Z,99.90
2023-05-07T02:02:03.010Z,99.90
2023-05-07T02:07:06.760Z,99.90
2023-05-07T02:12:09.760Z,99.90
2023-05-07T02:17:12.455Z,99.90
2023-05-07T02:22:14.894Z,99.90
2023-05-07T02:27:17.517Z,99.90
2023-05-07T02:32:21.387Z,99.90
2023-05-07T02:37:23.849Z,99.90
2023-05-07T02:42:26.641Z,99.90
2023-05-07T02:47:29.722Z,99.90
2023-05-07T02:52:34.418Z,99.90
2023-05-07T02:57:36.909Z,99.90
2023-05-07T03:02:40.765Z,99.90
2023-05-07T03:07:46.363Z,99.90
2023-05-07T03:12:50.042Z,99.90
2023-05-07T03:17:53.745Z,99.90
2023-05-07T03:22:56.406Z,99.90
2023-05-07T03:27:59.427Z,99.90
2023-05-07T03:33:10.167Z,99.90
2023-05-07T03:38:13.418Z,99.90
2023-05-07T03:43:16.086Z,99.90
2023-05-07T03:48:23.851Z,99.90
2023-05-07T03:53:28.305Z,99.90
2023-05-07T03:58:30.879Z,99.90
2023-05-07T04:03:36.710Z,99.90
2023-05-07T04:08:39.993Z,99.90
2023-05-07T04:13:43.789Z,99.90
2023-05-07T04:18:46.446Z,99.90
2023-05-07T04:23:49.401Z,99.90
2023-05-07T04:28:51.994Z,99.90
2023-05-07T04:33:54.570Z,99.90
2023-05-07T04:38:57.729Z,99.90
2023-05-07T04:44:00.404Z,99.90
2023-05-07T04:49:06.766Z,99.90
2023-05-07T04:54:09.420Z,99.90
2023-05-07T04:59:12.016Z,99.90
2023-05-07T05:04:17.744Z,99.90
2023-05-07T05:09:20.453Z,99.90
2023-05-07T05:14:23.057Z,99.90
2023-05-07T05:19:27.630Z,99.90
2023-05-07T05:24:30.176Z,99.90
2023-05-07T05:29:32.846Z,99.90
2023-05-07T05:34:35.776Z,99.90
2023-05-07T05:39:39.211Z,99.90
2023-05-07T05:44:43.754Z,99.90
2023-05-07T05:49:46.555Z,99.90
2023-05-07T05:54:51.777Z,99.90
2023-05-07T05:59:55.968Z,99.90
2023-05-07T06:04:58.590Z,99.90
2023-05-07T06:10:02.152Z,98.80
2023-05-07T06:15:08.140Z,99.90
2023-05-07T06:20:11.396Z,98.50
2023-05-07T06:25:15.794Z,99.90
2023-05-07T06:30:19.718Z,98.00
2023-05-07T06:35:22.528Z,97.00
2023-05-07T06:40:24.983Z,98.00
2023-05-07T06:45:27.734Z,98.60
2023-05-07T06:50:31.826Z,95.40
2023-05-07T06:55:35.546Z,95.80
2023-05-07T07:00:38.226Z,99.00
2023-05-07T07:05:45.089Z,96.60
2023-05-07T07:10:47.972Z,95.70
2023-05-07T07:15:50.984Z,94.50
2023-05-07T07:20:54.535Z,92.30
2023-05-07T07:25:57.294Z,95.20
2023-05-07T07:31:00.810Z,93.10
2023-05-07T07:36:07.441Z,89.50
2023-05-07T07:41:10.523Z,90.00
2023-05-07T07:46:13.859Z,89.00
2023-05-07T07:51:18.308Z,89.90
2023-05-07T07:56:21.768Z,79.80
2023-05-07T08:01:24.532Z,89.80
2023-05-07T08:06:27.980Z,90.00
2023-05-07T08:11:31.585Z,82.40
2023-05-07T08:16:35.206Z,90.50
2023-05-07T08:21:41.047Z,81.80
2023-05-07T08:26:47.624Z,79.70
2023-05-07T08:31:50.642Z,86.60
2023-05-07T08:36:53.475Z,87.80
2023-05-07T08:42:03.255Z,89.80
2023-05-07T08:47:08.708Z,80.30
2023-05-07T08:52:13.843Z,86.10
2023-05-07T08:57:16.990Z,80.70
2023-05-07T09:02:20.055Z,81.50
2023-05-07T09:07:23.614Z,83.40
2023-05-07T09:12:26.477Z,81.60
2023-05-07T09:17:30.135Z,79.20
2023-05-07T09:22:34.176Z,76.50
2023-05-07T09:27:43.194Z,75.10
2023-05-07T09:32:45.934Z,74.20
2023-05-07T09:38:01.106Z,75.10
2023-05-07T09:43:14.831Z,77.30
2023-05-07T09:48:28.295Z,77.70
2023-05-07T09:53:33.233Z,74.00
2023-05-07T09:58:39.151Z,80.80
2023-05-07T10:03:44.396Z,78.40
2023-05-07T10:08:49.321Z,78.80
2023-05-07T10:13:54.455Z,75.20
2023-05-07T10:19:00.197Z,80.00
2023-05-07T10:24:37.831Z,78.00
2023-05-07T10:30:14.318Z,74.90
2023-05-07T10:35:27.307Z,79.40
2023-05-07T10:40:32.235Z,76.20
2023-05-07T10:45:35.539Z,73.90
2023-05-07T10:50:41.919Z,67.70
2023-05-07T10:55:53.659Z,66.30
2023-05-07T11:01:03.353Z,67.00
2023-05-07T11:06:17.353Z,66.70
2023-05-07T11:11:54.249Z,72.70
2023-05-07T11:17:13.881Z,72.80
2023-05-07T11:22:31.797Z,77.50
2023-05-07T11:27:56.085Z,69.30
2023-05-07T11:32:59.977Z,68.90
2023-05-07T11:38:03.335Z,72.40
2023-05-07T11:43:12.714Z,68.40
2023-05-07T11:48:16.083Z,67.40
2023-05-07T11:53:18.527Z,63.20
2023-05-07T11:58:26.669Z,64.30
2023-05-07T12:03:31.922Z,67.60
2023-05-07T12:08:39.923Z,72.90
2023-05-07T12:13:42.636Z,62.10
2023-05-07T12:18:46.069Z,70.10
2023-05-07T12:23:49.135Z,73.20
2023-05-07T12:28:51.834Z,67.50
2023-05-07T12:33:54.235Z,62.80
2023-05-07T12:38:56.727Z,66.80
2023-05-07T12:43:59.422Z,65.50
2023-05-07T12:49:02.118Z,57.50
2023-05-07T12:54:04.741Z,56.00
2023-05-07T12:59:07.237Z,56.70
2023-05-07T13:04:09.792Z,55.40
2023-05-07T13:09:12.263Z,63.40
2023-05-07T13:14:14.981Z,71.00
2023-05-07T13:19:18.530Z,68.50
2023-05-07T13:24:21.118Z,69.40
2023-05-07T13:29:30.920Z,63.40
2023-05-07T13:34:33.476Z,64.50
2023-05-07T13:39:35.979Z,71.60
2023-05-07T13:44:38.482Z,58.80
2023-05-07T13:49:41.027Z,48.50
2023-05-07T13:54:43.758Z,61.30
2023-05-07T13:59:46.329Z,58.50
2023-05-07T14:04:48.797Z,53.90
2023-05-07T14:09:51.297Z,54.20
2023-05-07T14:14:53.802Z,54.60
2023-05-07T14:19:59.455Z,48.80
2023-05-07T14:25:06.767Z,51.00
2023-05-07T14:30:10.076Z,51.70
2023-05-07T14:35:12.826Z,53.30
2023-05-07T14:40:15.897Z,52.20
2023-05-07T14:45:19.303Z,49.70
2023-05-07T14:50:21.914Z,53.60
2023-05-07T14:55:24.445Z,56.20
2023-05-07T15:00:27.256Z,55.10
2023-05-07T15:05:29.804Z,63.50
2023-05-07T15:10:32.270Z,64.80
2023-05-07T15:15:35.900Z,66.50
2023-05-07T15:20:38.926Z,68.40
2023-05-07T15:25:41.889Z,74.20
2023-05-07T15:30:44.301Z,64.80
2023-05-07T15:35:46.779Z,64.40
2023-05-07T15:40:50.966Z,71.10
2023-05-07T15:45:54.312Z,52.90
2023-05-07T15:50:56.889Z,63.50
2023-05-07T15:55:59.320Z,56.30
2023-05-07T16:01:01.888Z,59.80
2023-05-07T16:06:06.060Z,62.10
2023-05-07T16:11:08.529Z,66.50
2023-05-07T16:16:11.105Z,70.40
2023-05-07T16:21:13.900Z,70.30
2023-05-07T16:26:16.686Z,68.60
2023-05-07T16:31:19.546Z,74.20
2023-05-07T16:36:22.846Z,69.20
2023-05-07T16:41:26.159Z,76.40
2023-05-07T16:46:28.668Z,73.30
2023-05-07T16:51:31.146Z,72.90
2023-05-07T16:56:33.667Z,68.40
2023-05-07T17:01:36.261Z,64.60
2023-05-07T17:06:38.755Z,62.80
2023-05-07T17:11:41.179Z,80.00
2023-05-07T17:16:43.789Z,82.90
2023-05-07T17:21:46.254Z,83.50
2023-05-07T17:26:49.146Z,81.30
2023-05-07T17:31:51.761Z,82.80
2023-05-07T17:36:54.683Z,85.40
2023-05-07T17:41:57.323Z,88.10
2023-05-07T17:46:59.868Z,85.90
2023-05-07T17:52:02.426Z,89.40
2023-05-07T17:57:05.011Z,91.10
2023-05-07T18:02:07.429Z,90.90
2023-05-07T18:07:10.000Z,92.40
2023-05-07T18:12:12.935Z,99.90
2023-05-07T18:17:16.395Z,99.90
2023-05-07T18:22:19.126Z,99.90
2023-05-07T18:27:21.812Z,99.90
2023-05-07T18:32:24.495Z,99.90
2023-05-07T18:37:27.146Z,99.90
2023-05-07T18:42:30.658Z,99.90
2023-05-07T18:47:33.164Z,99.90
2023-05-07T18:52:36.201Z,99.90
2023-05-07T18:57:38.770Z,99.90
2023-05-07T19:02:41.318Z,99.90
2023-05-07T19:07:44.045Z,99.90
2023-05-07T19:12:46.529Z,99.90
2023-05-07T19:17:50.291Z,99.90
2023-05-07T19:22:52.821Z,99.90
2023-05-07T19:27:56.667Z,99.90
2023-05-07T19:33:02.426Z,99.90
2023-05-07T19:38:06.144Z,99.90
2023-05-07T19:43:08.624Z,99.90
2023-05-07T19:48:11.244Z,99.90
2023-05-07T19:53:13.792Z,99.90
2023-05-07T19:58:16.893Z,99.90
2023-05-07T20:03:19.425Z,99.90
2023-05-07T20:08:22.022Z,99.90
2023-05-07T20:13:24.838Z,99.90
2023-05-07T20:18:28.972Z,99.90
2023-05-07T20:23:31.516Z,99.90
2023-05-07T20:28:34.065Z,99.90
2023-05-07T20:33:40.697Z,99.90
2023-05-07T20:38:44.267Z,99.90
2023-05-07T20:43:46.979Z,99.90
2023-05-07T20:48:49.851Z,99.90
2023-05-07T20:53:52.441Z,99.90
2023-05-07T20:58:54.946Z,99.90
2023-05-07T21:03:57.535Z,99.90
2023-05-07T21:08:59.928Z,99.90
2023-05-07T21:14:02.394Z,99.90
2023-05-07T21:19:05.215Z,99.90
2023-05-07T21:24:08.351Z,99.90
2023-05-07T21:29:11.005Z,99.90
2023-05-07T21:34:13.592Z,99.90
2023-05-07T21:39:16.091Z,99.90
2023-05-07T21:44:18.676Z,99.90
2023-05-07T21:49:21.103Z,99.90
2023-05-07T21:54:23.485Z,99.90
2023-05-07T21:59:26.031Z,99.90
2023-05-07T22:09:31.442Z,99.90
2023-05-07T22:14:33.909Z,99.90
2023-05-07T22:19:36.467Z,99.90
2023-05-07T22:24:38.875Z,99.90
2023-05-07T22:29:41.413Z,99.90
2023-05-07T22:34:43.960Z,99.90
2023-05-07T22:39:46.393Z,99.90
2023-05-07T22:44:53.274Z,99.90
2023-05-07T22:49:56.237Z,99.90
2023-05-07T22:54:58.759Z,99.90
2023-05-07T23:00:01.296Z,99.90
2023-05-07T23:05:04.167Z,99.90
2023-05-07T23:10:07.644Z,99.90
2023-05-07T23:15:10.561Z,99.90
2023-05-07T23:20:14.270Z,99.90
2023-05-07T23:25:18.166Z,99.90
2023-05-07T23:30:21.142Z,99.90
2023-05-07T23:35:23.678Z,99.90
2023-05-07T23:40:27.035Z,99.90
2023-05-07T23:45:29.482Z,99.90
2023-05-07T23:50:31.967Z,99.90
2023-05-07T23:55:34.590Z,99.90
